sensor_id;sensor_type;location;lat;lon;timestamp;temperature;humidity
19864;DHT22;10094;48.820;9.226;2023-05-14T00:04:44;13.30;99.90
19864;DHT22;10094;48.820;9.226;2023-05-14T00:11:27;13.20;99.90
19864;DHT22;10094;48.820;9.226;2023-05-14T00:18:09;13.10;99.90
19864;DHT22;10094;48.820;9.226;2023-05-14T00:24:53;13.10;99.90
19864;DHT22;10094;48.820;9.226;2023-05-14T00:31:35;13.10;99.90
19864;DHT22;10094;48.820;9.226;2023-05-14T00:38:18;13.00;99.90
19864;DHT22;10094;48.820;9.226;2023-05-14T00:45:01;12.70;99.90
19864;DHT22;10094;48.820;9.226;2023-05-14T00:51:44;12.60;99.90
19864;DHT22;10094;48.820;9.226;2023-05-14T00:58:28;12.60;99.90
19864;DHT22;10094;48.820;9.226;2023-05-14T01:05:11;12.50;99.90
19864;DHT22;10094;48.820;9.226;2023-05-14T01:12:18;12.40;99.90
19864;DHT22;10094;48.820;9.226;2023-05-14T01:19:04;12.30;99.90
19864;DHT22;10094;48.820;9.226;2023-05-14T01:25:49;12.20;99.90
19864;DHT22;10094;48.820;9.226;2023-05-14T01:32:32;12.10;99.90
19864;DHT22;10094;48.820;9.226;2023-05-14T01:39:15;12.00;99.90
19864;DHT22;10094;48.820;9.226;2023-05-14T01:45:57;11.90;99.90
19864;DHT22;10094;48.820;9.226;2023-05-14T01:52:40;11.90;99.90
19864;DHT22;10094;48.820;9.226;2023-05-14T01:59:22;11.90;99.90
19864;DHT22;10094;48.820;9.226;2023-05-14T02:06:05;11.80;99.90
19864;DHT22;10094;48.820;9.226;2023-05-14T02:12:47;11.60;99.90
19864;DHT22;10094;48.820;9.226;2023-05-14T02:19:29;11.50;99.90
19864;DHT22;10094;48.820;9.226;2023-05-14T02:26:12;11.40;99.90
19864;DHT22;10094;48.820;9.226;2023-05-14T02:32:54;11.30;99.90
19864;DHT22;10094;48.820;9.226;2023-05-14T02:39:37;11.40;99.90
19864;DHT22;10094;48.820;9.226;2023-05-14T02:46:20;11.40;99.90
19864;DHT22;10094;48.820;9.226;2023-05-14T02:53:03;11.50;99.90
19864;DHT22;10094;48.820;9.226;2023-05-14T02:59:45;11.50;99.90
19864;DHT22;10094;48.820;9.226;2023-05-14T03:06:27;11.50;99.90
19864;DHT22;10094;48.820;9.226;2023-05-14T03:13:10;11.40;99.90
19864;DHT22;10094;48.820;9.226;2023-05-14T03:19:52;11.30;99.90
19864;DHT22;10094;48.820;9.226;2023-05-14T03:26:34;11.30;99.90
19864;DHT22;10094;48.820;9.226;2023-05-14T03:33:18;11.40;99.90
19864;DHT22;10094;48.820;9.226;2023-05-14T03:40:01;11.40;99.90
19864;DHT22;10094;48.820;9.226;2023-05-14T03:46:43;11.60;99.90
19864;DHT22;10094;48.820;9.226;2023-05-14T03:53:26;11.50;99.90
19864;DHT22;10094;48.820;9.226;2023-05-14T04:00:09;11.50;99.90
19864;DHT22;10094;48.820;9.226;2023-05-14T04:07:01;11.70;99.90
19864;DHT22;10094;48.820;9.226;2023-05-14T04:13:43;11.70;99.90
19864;DHT22;10094;48.820;9.226;2023-05-14T04:20:26;11.70;99.90
19864;DHT22;10094;48.820;9.226;2023-05-14T04:27:08;11.60;99.90
19864;DHT22;10094;48.820;9.226;2023-05-14T04:33:51;11.70;99.90
19864;DHT22;10094;48.820;9.226;2023-05-14T04:40:33;11.70;99.90
19864;DHT22;10094;48.820;9.226;2023-05-14T04:47:15;11.60;99.90
19864;DHT22;10094;48.820;9.226;2023-05-14T04:53:58;11.40;99.90
19864;DHT22;10094;48.820;9.226;2023-05-14T05:00:40;11.50;99.90
19864;DHT22;10094;48.820;9.226;2023-05-14T05:07:23;11.70;99.90
19864;DHT22;10094;48.820;9.226;2023-05-14T05:14:05;11.80;99.90
19864;DHT22;10094;48.820;9.226;2023-05-14T05:20:47;11.70;99.90
19864;DHT22;10094;48.820;9.226;2023-05-14T05:27:30;11.70;99.90
19864;DHT22;10094;48.820;9.226;2023-05-14T05:34:12;12.00;99.90
19864;DHT22;10094;48.820;9.226;2023-05-14T05:40:54;12.10;99.90
19864;DHT22;10094;48.820;9.226;2023-05-14T05:47:37;12.20;99.90
19864;DHT22;10094;48.820;9.226;2023-05-14T05:54:19;12.50;99.90
19864;DHT22;10094;48.820;9.226;2023-05-14T06:01:02;12.80;99.90
19864;DHT22;10094;48.820;9.226;2023-05-14T06:07:44;13.00;99.90
19864;DHT22;10094;48.820;9.226;2023-05-14T06:14:26;13.00;99.90
19864;DHT22;10094;48.820;9.226;2023-05-14T06:21:09;13.10;99.90
19864;DHT22;10094;48.820;9.226;2023-05-14T06:27:51;13.50;99.90
19864;DHT22;10094;48.820;9.226;2023-05-14T06:34:33;14.00;99.90
19864;DHT22;10094;48.820;9.226;2023-05-14T06:41:16;13.90;99.90
19864;DHT22;10094;48.820;9.226;2023-05-14T06:47:58;14.00;99.90
19864;DHT22;10094;48.820;9.226;2023-05-14T06:54:41;14.10;99.90
19864;DHT22;10094;48.820;9.226;2023-05-14T07:01:23;14.20;99.90
19864;DHT22;10094;48.820;9.226;2023-05-14T07:08:06;14.50;99.90
19864;DHT22;10094;48.820;9.226;2023-05-14T07:14:48;14.50;99.90
19864;DHT22;10094;48.820;9.226;2023-05-14T07:21:31;15.00;99.90
19864;DHT22;10094;48.820;9.226;2023-05-14T07:28:14;15.00;99.90
19864;DHT22;10094;48.820;9.226;2023-05-14T07:34:56;15.90;99.90
19864;DHT22;10094;48.820;9.226;2023-05-14T07:41:38;16.70;99.90
19864;DHT22;10094;48.820;9.226;2023-05-14T07:48:20;17.40;99.90
19864;DHT22;10094;48.820;9.226;2023-05-14T07:55:03;18.00;99.90
19864;DHT22;10094;48.820;9.226;2023-05-14T08:01:46;20.00;99.90
19864;DHT22;10094;48.820;9.226;2023-05-14T08:08:28;22.00;99.90
19864;DHT22;10094;48.820;9.226;2023-05-14T08:15:11;24.30;94.60
19864;DHT22;10094;48.820;9.226;2023-05-14T08:21:53;23.50;95.90
19864;DHT22;10094;48.820;9.226;2023-05-14T08:28:36;20.60;99.90
19864;DHT22;10094;48.820;9.226;2023-05-14T08:35:18;19.80;99.90
19864;DHT22;10094;48.820;9.226;2023-05-14T08:42:01;20.00;99.90
19864;DHT22;10094;48.820;9.226;2023-05-14T08:48:53;21.90;98.70
19864;DHT22;10094;48.820;9.226;2023-05-14T08:55:37;25.50;92.20
19864;DHT22;10094;48.820;9.226;2023-05-14T09:02:22;27.30;90.40
19864;DHT22;10094;48.820;9.226;2023-05-14T09:09:06;26.80;89.70
19864;DHT22;10094;48.820;9.226;2023-05-14T09:15:48;25.60;90.90
19864;DHT22;10094;48.820;9.226;2023-05-14T09:22:33;25.90;91.30
19864;DHT22;10094;48.820;9.226;2023-05-14T09:29:15;28.40;87.20
19864;DHT22;10094;48.820;9.226;2023-05-14T09:35:58;27.50;84.70
19864;DHT22;10094;48.820;9.226;2023-05-14T09:42:42;28.20;83.10
19864;DHT22;10094;48.820;9.226;2023-05-14T09:49:24;23.70;90.50
19864;DHT22;10094;48.820;9.226;2023-05-14T09:56:07;22.60;93.30
19864;DHT22;10094;48.820;9.226;2023-05-14T10:02:50;22.00;94.20
19864;DHT22;10094;48.820;9.226;2023-05-14T10:09:35;21.10;98.70
19864;DHT22;10094;48.820;9.226;2023-05-14T10:16:30;21.60;96.70
19864;DHT22;10094;48.820;9.226;2023-05-14T10:23:16;22.00;95.70
19864;DHT22;10094;48.820;9.226;2023-05-14T10:29:59;21.90;96.10
19864;DHT22;10094;48.820;9.226;2023-05-14T10:36:41;22.40;95.70
19864;DHT22;10094;48.820;9.226;2023-05-14T10:43:26;22.60;95.00
19864;DHT22;10094;48.820;9.226;2023-05-14T10:50:11;21.70;98.30
19864;DHT22;10094;48.820;9.226;2023-05-14T10:56:57;19.40;99.90
19864;DHT22;10094;48.820;9.226;2023-05-14T11:03:45;19.40;99.90
19864;DHT22;10094;48.820;9.226;2023-05-14T11:10:28;20.10;99.90
19864;DHT22;10094;48.820;9.226;2023-05-14T11:17:13;21.40;99.90
19864;DHT22;10094;48.820;9.226;2023-05-14T11:23:56;21.20;99.70
19864;DHT22;10094;48.820;9.226;2023-05-14T11:30:38;21.40;98.80
19864;DHT22;10094;48.820;9.226;2023-05-14T11:37:20;20.80;99.90
19864;DHT22;10094;48.820;9.226;2023-05-14T11:44:03;20.90;99.90
19864;DHT22;10094;48.820;9.226;2023-05-14T11:50:50;21.50;98.60
19864;DHT22;10094;48.820;9.226;2023-05-14T11:57:34;20.70;99.90
19864;DHT22;10094;48.820;9.226;2023-05-14T12:04:17;19.90;99.90
19864;DHT22;10094;48.820;9.226;2023-05-14T12:11:03;19.70;99.90
19864;DHT22;10094;48.820;9.226;2023-05-14T12:17:49;19.40;99.90
19864;DHT22;10094;48.820;9.226;2023-05-14T12:24:33;19.40;99.90
19864;DHT22;10094;48.820;9.226;2023-05-14T12:31:15;19.30;99.90
19864;DHT22;10094;48.820;9.226;2023-05-14T12:37:58;19.80;99.90
19864;DHT22;10094;48.820;9.226;2023-05-14T12:44:40;19.70;99.90
19864;DHT22;10094;48.820;9.226;2023-05-14T12:51:24;20.80;99.60
19864;DHT22;10094;48.820;9.226;2023-05-14T12:58:06;21.70;97.40
19864;DHT22;10094;48.820;9.226;2023-05-14T13:04:49;20.90;97.80
19864;DHT22;10094;48.820;9.226;2023-05-14T13:11:31;20.10;97.40
19864;DHT22;10094;48.820;9.226;2023-05-14T13:18:16;20.00;99.80
19864;DHT22;10094;48.820;9.226;2023-05-14T13:24:58;19.50;99.90
19864;DHT22;10094;48.820;9.226;2023-05-14T13:31:41;19.30;99.90
19864;DHT22;10094;48.820;9.226;2023-05-14T13:38:23;19.30;99.90
19864;DHT22;10094;48.820;9.226;2023-05-14T13:45:06;19.50;99.90
19864;DHT22;10094;48.820;9.226;2023-05-14T13:51:49;19.50;99.90
19864;DHT22;10094;48.820;9.226;2023-05-14T13:58:31;19.50;99.90
19864;DHT22;10094;48.820;9.226;2023-05-14T14:05:14;19.60;99.90
19864;DHT22;10094;48.820;9.226;2023-05-14T14:11:57;19.50;99.90
19864;DHT22;10094;48.820;9.226;2023-05-14T14:18:39;19.20;99.90
19864;DHT22;10094;48.820;9.226;2023-05-14T14:25:22;19.40;99.90
19864;DHT22;10094;48.820;9.226;2023-05-14T14:32:05;19.90;98.50
19864;DHT22;10094;48.820;9.226;2023-05-14T14:38:48;21.00;95.40
19864;DHT22;10094;48.820;9.226;2023-05-14T14:45:30;21.60;93.50
19864;DHT22;10094;48.820;9.226;2023-05-14T14:52:13;21.50;94.00
19864;DHT22;10094;48.820;9.226;2023-05-14T14:58:55;21.80;93.30
19864;DHT22;10094;48.820;9.226;2023-05-14T15:05:37;21.50;94.40
19864;DHT22;10094;48.820;9.226;2023-05-14T15:12:20;20.50;96.70
19864;DHT22;10094;48.820;9.226;2023-05-14T15:19:02;19.10;99.90
19864;DHT22;10094;48.820;9.226;2023-05-14T15:25:44;17.80;99.90
19864;DHT22;10094;48.820;9.226;2023-05-14T15:32:27;16.70;99.90
19864;DHT22;10094;48.820;9.226;2023-05-14T15:39:09;16.70;99.90
19864;DHT22;10094;48.820;9.226;2023-05-14T15:45:52;16.80;99.90
19864;DHT22;10094;48.820;9.226;2023-05-14T15:52:34;17.30;99.90
19864;DHT22;10094;48.820;9.226;2023-05-14T15:59:17;17.70;99.90
19864;DHT22;10094;48.820;9.226;2023-05-14T16:06:00;17.90;99.90
19864;DHT22;10094;48.820;9.226;2023-05-14T16:12:42;18.30;99.90
19864;DHT22;10094;48.820;9.226;2023-05-14T16:19:24;18.60;99.90
19864;DHT22;10094;48.820;9.226;2023-05-14T16:26:07;18.60;99.90
19864;DHT22;10094;48.820;9.226;2023-05-14T16:32:49;18.50;99.90
19864;DHT22;10094;48.820;9.226;2023-05-14T16:39:32;18.70;99.90
19864;DHT22;10094;48.820;9.226;2023-05-14T16:46:14;19.30;99.90
19864;DHT22;10094;48.820;9.226;2023-05-14T16:52:57;19.30;99.90
19864;DHT22;10094;48.820;9.226;2023-05-14T16:59:39;19.10;99.90
19864;DHT22;10094;48.820;9.226;2023-05-14T17:06:22;18.80;99.90
19864;DHT22;10094;48.820;9.226;2023-05-14T17:13:04;18.30;99.90
19864;DHT22;10094;48.820;9.226;2023-05-14T17:19:49;18.00;99.90
19864;DHT22;10094;48.820;9.226;2023-05-14T17:26:32;17.80;99.90
19864;DHT22;10094;48.820;9.226;2023-05-14T17:33:14;17.90;99.90
19864;DHT22;10094;48.820;9.226;2023-05-14T17:39:56;18.10;99.90
19864;DHT22;10094;48.820;9.226;2023-05-14T17:46:39;18.00;99.90
19864;DHT22;10094;48.820;9.226;2023-05-14T17:53:23;17.80;99.90
19864;DHT22;10094;48.820;9.226;2023-05-14T18:00:05;17.60;99.90
19864;DHT22;10094;48.820;9.226;2023-05-14T18:06:51;17.50;99.90
19864;DHT22;10094;48.820;9.226;2023-05-14T18:13:34;17.30;99.90
19864;DHT22;10094;48.820;9.226;2023-05-14T18:20:16;17.10;99.90
19864;DHT22;10094;48.820;9.226;2023-05-14T18:26:59;16.80;99.90
19864;DHT22;10094;48.820;9.226;2023-05-14T18:33:41;16.50;99.90
19864;DHT22;10094;48.820;9.226;2023-05-14T18:40:24;16.30;99.90
19864;DHT22;10094;48.820;9.226;2023-05-14T18:47:06;16.20;99.90
19864;DHT22;10094;48.820;9.226;2023-05-14T18:53:49;16.00;99.90
19864;DHT22;10094;48.820;9.226;2023-05-14T19:00:31;15.70;99.90
19864;DHT22;10094;48.820;9.226;2023-05-14T19:07:13;15.50;99.90
19864;DHT22;10094;48.820;9.226;2023-05-14T19:13:56;15.30;99.90
19864;DHT22;10094;48.820;9.226;2023-05-14T19:20:38;15.10;99.90
19864;DHT22;10094;48.820;9.226;2023-05-14T19:27:21;14.90;99.90
19864;DHT22;10094;48.820;9.226;2023-05-14T19:34:05;14.70;99.90
19864;DHT22;10094;48.820;9.226;2023-05-14T19:40:47;14.70;99.90
19864;DHT22;10094;48.820;9.226;2023-05-14T19:47:30;14.70;99.90
19864;DHT22;10094;48.820;9.226;2023-05-14T19:54:12;14.60;99.90
19864;DHT22;10094;48.820;9.226;2023-05-14T20:00:55;14.50;99.90
19864;DHT22;10094;48.820;9.226;2023-05-14T20:07:39;14.30;99.90
19864;DHT22;10094;48.820;9.226;2023-05-14T20:14:21;14.20;99.90
19864;DHT22;10094;48.820;9.226;2023-05-14T20:21:04;14.10;99.90
19864;DHT22;10094;48.820;9.226;2023-05-14T20:27:46;13.80;99.90
19864;DHT22;10094;48.820;9.226;2023-05-14T20:34:29;13.70;99.90
19864;DHT22;10094;48.820;9.226;2023-05-14T20:41:11;13.40;99.90
19864;DHT22;10094;48.820;9.226;2023-05-14T20:47:54;13.30;99.90
19864;DHT22;10094;48.820;9.226;2023-05-14T20:54:36;13.30;99.90
19864;DHT22;10094;48.820;9.226;2023-05-14T21:01:19;13.10;99.90
19864;DHT22;10094;48.820;9.226;2023-05-14T21:08:02;13.00;99.90
19864;DHT22;10094;48.820;9.226;2023-05-14T21:14:44;13.00;99.90
19864;DHT22;10094;48.820;9.226;2023-05-14T21:21:26;13.00;99.90
19864;DHT22;10094;48.820;9.226;2023-05-14T21:28:09;12.80;99.90
19864;DHT22;10094;48.820;9.226;2023-05-14T21:34:51;12.70;99.90
19864;DHT22;10094;48.820;9.226;2023-05-14T21:41:34;12.60;99.90
19864;DHT22;10094;48.820;9.226;2023-05-14T21:48:16;12.50;99.90
19864;DHT22;10094;48.820;9.226;2023-05-14T21:54:59;12.60;99.90
19864;DHT22;10094;48.820;9.226;2023-05-14T22:01:41;12.60;99.90
19864;DHT22;10094;48.820;9.226;2023-05-14T22:08:44;12.50;99.90
19864;DHT22;10094;48.820;9.226;2023-05-14T22:15:26;12.30;99.90
19864;DHT22;10094;48.820;9.226;2023-05-14T22:22:08;12.30;99.90
19864;DHT22;10094;48.820;9.226;2023-05-14T22:28:50;12.40;99.90
19864;DHT22;10094;48.820;9.226;2023-05-14T22:35:33;12.50;99.90
19864;DHT22;10094;48.820;9.226;2023-05-14T22:42:17;12.40;99.90
19864;DHT22;10094;48.820;9.226;2023-05-14T22:49:01;12.30;99.90
19864;DHT22;10094;48.820;9.226;2023-05-14T22:55:43;12.10;99.90
19864;DHT22;10094;48.820;9.226;2023-05-14T23:02:26;12.00;99.90
19864;DHT22;10094;48.820;9.226;2023-05-14T23:09:08;11.90;99.90
19864;DHT22;10094;48.820;9.226;2023-05-14T23:15:51;11.90;99.90
19864;DHT22;10094;48.820;9.226;2023-05-14T23:22:33;11.80;99.90
19864;DHT22;10094;48.820;9.226;2023-05-14T23:29:15;11.70;99.90
19864;DHT22;10094;48.820;9.226;2023-05-14T23:35:57;11.50;99.90
19864;DHT22;10094;48.820;9.226;2023-05-14T23:42:40;11.30;99.90
19864;DHT22;10094;48.820;9.226;2023-05-14T23:49:23;11.30;99.90
19864;DHT22;10094;48.820;9.226;2023-05-14T23:56:05;11.30;99.90
